createdAt,value
2022-10-07T00:00:49.874Z,11.2
2022-10-07T00:02:55.707Z,11.2
2022-10-07T00:05:01.583Z,11.2
2022-10-07T00:07:07.367Z,11.2
2022-10-07T00:09:16.181Z,11.2
2022-10-07T00:11:22.077Z,11.1
2022-10-07T00:13:27.837Z,11.1
2022-10-07T00:15:33.697Z,11.1
2022-10-07T00:17:39.529Z,11
2022-10-07T00:19:45.396Z,11
2022-10-07T00:24:00.215Z,10.9
2022-10-07T00:26:06.128Z,10.9
2022-10-07T00:28:12.071Z,10.9
2022-10-07T00:33:28.157Z,11
2022-10-07T00:37:43.510Z,10.9
2022-10-07T00:39:48.846Z,11
2022-10-07T00:41:54.706Z,10.9
2022-10-07T00:44:00.584Z,11
2022-10-07T00:46:06.396Z,10.9
2022-10-07T00:48:12.208Z,10.8
2022-10-07T00:50:18.058Z,10.9
2022-10-07T00:58:44.598Z,10.8
2022-10-07T01:00:50.529Z,10.9
2022-10-07T01:02:56.339Z,10.8
2022-10-07T01:07:11.140Z,10.9
2022-10-07T01:09:16.986Z,10.9
2022-10-07T01:11:22.847Z,10.9
2022-10-07T01:13:28.714Z,10.9
2022-10-07T01:15:34.565Z,11
2022-10-07T01:17:40.453Z,10.9
2022-10-07T01:19:46.283Z,11
2022-10-07T01:21:55.244Z,11.1
2022-10-07T01:24:01.077Z,11
2022-10-07T01:26:06.946Z,11.1
2022-10-07T01:27:11.413Z,11.1
2022-10-07T01:29:17.283Z,11.1
2022-10-07T01:31:23.155Z,11
2022-10-07T01:33:28.997Z,11.1
2022-10-07T01:35:37.917Z,11.1
2022-10-07T01:37:43.971Z,11.1
2022-10-07T01:39:49.616Z,11.1
2022-10-07T01:41:55.497Z,11.1
2022-10-07T01:44:01.335Z,11.1
2022-10-07T01:46:07.239Z,11.1
2022-10-07T01:48:13.037Z,11.1
2022-10-07T01:50:22.512Z,11.1
2022-10-07T01:52:28.283Z,11.1
2022-10-07T01:54:34.166Z,11.1
2022-10-07T01:56:40.045Z,11.1
2022-10-07T01:58:45.875Z,11.2
2022-10-07T02:00:51.731Z,11.2
2022-10-07T02:02:57.575Z,11.2
2022-10-07T02:05:06.527Z,11.2
2022-10-07T02:07:12.393Z,11.2
2022-10-07T02:11:24.101Z,11.3
2022-10-07T02:13:29.970Z,11.3
2022-10-07T02:15:35.847Z,11.3
2022-10-07T02:17:41.998Z,11.3
2022-10-07T02:19:50.407Z,11.2
2022-10-07T02:21:56.272Z,11.2
2022-10-07T02:24:02.040Z,11.2
2022-10-07T02:26:27.952Z,11.1
2022-10-07T02:28:33.906Z,11.1
2022-10-07T02:30:39.716Z,11.2
2022-10-07T02:32:48.593Z,11.1
2022-10-07T02:34:54.458Z,11.1
2022-10-07T02:37:00.315Z,11.1
2022-10-07T02:39:06.074Z,11
2022-10-07T02:41:11.928Z,11
2022-10-07T02:43:17.803Z,11.1
2022-10-07T02:45:26.807Z,11.1
2022-10-07T02:47:32.601Z,11.1
2022-10-07T02:51:44.317Z,11.1
2022-10-07T02:53:50.162Z,11.1
2022-10-07T02:55:56.029Z,11
2022-10-07T02:58:01.895Z,11
2022-10-07T03:00:11.093Z,11
2022-10-07T03:02:16.602Z,10.9
2022-10-07T03:04:22.438Z,10.9
2022-10-07T03:06:28.292Z,10.9
2022-10-07T03:08:34.162Z,10.9
2022-10-07T03:10:40.015Z,10.9
2022-10-07T03:14:51.730Z,10.9
2022-10-07T03:17:00.674Z,10.9
2022-10-07T03:19:06.505Z,10.8
2022-10-07T03:21:12.367Z,10.8
2022-10-07T03:22:16.707Z,10.8
2022-10-07T03:24:22.574Z,10.8
2022-10-07T03:28:34.350Z,10.8
2022-10-07T03:30:43.235Z,10.7
2022-10-07T03:32:49.073Z,10.7
2022-10-07T03:34:54.924Z,10.7
2022-10-07T03:37:00.787Z,10.7
2022-10-07T03:39:06.634Z,10.8
2022-10-07T03:41:12.495Z,10.8
2022-10-07T03:47:33.140Z,10.8
2022-10-07T03:49:38.892Z,10.8
2022-10-07T03:51:44.757Z,10.8
2022-10-07T03:53:50.602Z,10.8
2022-10-07T03:55:56.469Z,10.8
2022-10-07T03:58:02.309Z,10.7
2022-10-07T04:00:11.262Z,10.8
2022-10-07T04:02:17.100Z,10.7
2022-10-07T04:04:22.943Z,10.7
2022-10-07T04:06:28.800Z,10.7
2022-10-07T04:08:34.678Z,10.8
2022-10-07T04:10:40.505Z,10.7
2022-10-07T04:17:01.172Z,10.7
2022-10-07T04:19:07.003Z,10.7
2022-10-07T04:20:11.463Z,10.6
2022-10-07T04:22:17.320Z,10.7
2022-10-07T04:24:23.186Z,10.7
2022-10-07T04:26:29.036Z,10.7
2022-10-07T04:28:38.046Z,10.6
2022-10-07T04:30:43.889Z,10.7
2022-10-07T04:32:49.699Z,10.7
2022-10-07T04:34:55.558Z,10.7
2022-10-07T04:37:01.496Z,10.6
2022-10-07T04:39:07.255Z,10.6
2022-10-07T04:41:13.112Z,10.6
2022-10-07T04:43:22.053Z,10.5
2022-10-07T04:45:27.888Z,10.6
2022-10-07T04:47:33.738Z,10.5
2022-10-07T04:49:39.618Z,10.5
2022-10-07T04:51:45.438Z,10.5
2022-10-07T04:53:56.323Z,10.5
2022-10-07T04:55:57.120Z,10.5
2022-10-07T05:00:11.849Z,10.5
2022-10-07T05:02:17.760Z,10.5
2022-10-07T05:04:23.519Z,10.4
2022-10-07T05:08:35.225Z,10.5
2022-10-07T05:10:41.061Z,10.5
2022-10-07T05:12:55.131Z,10.4
2022-10-07T05:14:55.836Z,10.4
2022-10-07T05:17:01.710Z,10.4
2022-10-07T05:18:06.168Z,10.4
2022-10-07T05:20:11.987Z,10.4
2022-10-07T05:22:17.853Z,10.4
2022-10-07T05:26:32.620Z,10.5
2022-10-07T05:28:38.541Z,10.5
2022-10-07T05:30:44.331Z,10.5
2022-10-07T05:32:50.160Z,10.5
2022-10-07T05:34:56.027Z,10.5
2022-10-07T05:37:01.885Z,10.5
2022-10-07T05:39:07.717Z,10.5
2022-10-07T05:41:16.679Z,10.5
2022-10-07T05:43:22.502Z,10.5
2022-10-07T05:45:28.418Z,10.5
2022-10-07T05:47:34.230Z,10.5
2022-10-07T05:53:51.757Z,10.5
2022-10-07T05:56:00.686Z,10.5
2022-10-07T05:58:06.527Z,10.5
2022-10-07T06:00:12.382Z,10.5
2022-10-07T06:02:18.451Z,10.6
2022-10-07T06:04:24.084Z,10.6
2022-10-07T06:06:29.930Z,10.6
2022-10-07T06:08:35.763Z,10.6
2022-10-07T06:10:44.729Z,10.6
2022-10-07T06:12:50.559Z,10.7
2022-10-07T06:17:27.999Z,10.7
2022-10-07T06:19:33.753Z,10.8
2022-10-07T06:21:39.587Z,10.9
2022-10-07T06:23:48.536Z,10.9
2022-10-07T06:25:54.378Z,10.9
2022-10-07T06:28:00.365Z,11
2022-10-07T06:30:06.104Z,11.2
2022-10-07T06:32:12.021Z,11.2
2022-10-07T06:36:23.747Z,11.5
2022-10-07T06:44:50.253Z,11.4
2022-10-07T06:46:56.125Z,11.6
2022-10-07T06:49:01.881Z,11.7
2022-10-07T06:51:07.625Z,11.8
2022-10-07T06:53:16.475Z,11.9
2022-10-07T06:55:22.239Z,11.9
2022-10-07T06:57:44.852Z,11.9
2022-10-07T06:59:33.906Z,12
2022-10-07T07:01:39.721Z,12.2
2022-10-07T07:05:54.384Z,12.3
2022-10-07T07:12:11.607Z,12.6
2022-10-07T07:13:16.001Z,13
2022-10-07T07:15:21.766Z,13.8
2022-10-07T07:19:33.334Z,13
2022-10-07T07:23:47.881Z,12.7
2022-10-07T07:25:53.674Z,12.7
2022-10-07T07:27:59.474Z,12.7
2022-10-07T07:30:05.246Z,12.8
2022-10-07T07:32:11.058Z,12.7
2022-10-07T07:34:16.820Z,12.8
2022-10-07T07:36:25.600Z,12.9
2022-10-07T07:38:31.380Z,13
2022-10-07T07:40:37.180Z,13.1
2022-10-07T07:42:42.980Z,13.2
2022-10-07T07:46:54.521Z,13.4
2022-10-07T07:49:00.328Z,13.4
2022-10-07T07:55:22.271Z,13.4
2022-10-07T07:59:33.856Z,13.5
2022-10-07T08:01:39.667Z,13.6
2022-10-07T08:03:45.453Z,13.6
2022-10-07T08:05:54.262Z,13.8
2022-10-07T08:08:00.031Z,13.9
2022-10-07T08:10:05.845Z,14.4
2022-10-07T08:11:10.256Z,14.5
2022-10-07T08:13:16.055Z,14.5
2022-10-07T08:15:21.861Z,14.6
2022-10-07T08:19:36.405Z,15.6
2022-10-07T08:21:42.249Z,15.8
2022-10-07T08:23:48.075Z,19.2
2022-10-07T08:25:53.829Z,20
2022-10-07T08:27:59.640Z,19.6
2022-10-07T08:30:05.408Z,20.3
2022-10-07T08:32:11.244Z,20.6
2022-10-07T08:34:19.991Z,21.6
2022-10-07T08:36:25.804Z,21.5
2022-10-07T08:38:31.604Z,20.2
2022-10-07T08:40:37.425Z,19.6
2022-10-07T08:42:43.226Z,19.4
2022-10-07T08:44:49.049Z,18.8
2022-10-07T08:51:09.481Z,19.1
2022-10-07T08:55:21.085Z,19.2
2022-10-07T08:57:26.902Z,19.2
2022-10-07T09:03:47.314Z,20.7
2022-10-07T09:05:53.124Z,21.1
2022-10-07T09:07:58.945Z,21.4
2022-10-07T09:09:03.367Z,21.3
2022-10-07T09:11:09.161Z,21.4
2022-10-07T09:13:14.949Z,21.9
2022-10-07T09:15:20.738Z,22.2
2022-10-07T09:19:35.337Z,21
2022-10-07T09:21:41.122Z,21.2
2022-10-07T09:23:46.942Z,21.5
2022-10-07T09:25:52.741Z,21.3
2022-10-07T09:27:58.596Z,20.1
2022-10-07T09:30:04.340Z,19.1
2022-10-07T09:32:13.105Z,18.9
2022-10-07T09:34:18.916Z,18.6
2022-10-07T09:36:24.695Z,18.9
2022-10-07T09:38:30.490Z,20.1
2022-10-07T09:40:36.293Z,21.3
2022-10-07T09:42:42.099Z,21.1
2022-10-07T09:44:48.043Z,20.9
2022-10-07T09:46:56.685Z,22.5
2022-10-07T09:49:02.488Z,22.7
2022-10-07T09:51:08.302Z,22.7
2022-10-07T09:53:14.122Z,22
2022-10-07T09:55:19.899Z,19.6
2022-10-07T09:57:25.706Z,20.2
2022-10-07T09:59:31.507Z,21.6
2022-10-07T10:01:40.330Z,21.4
2022-10-07T10:03:46.107Z,21.3
2022-10-07T10:08:23.108Z,18.6
2022-10-07T10:12:36.179Z,18.1
2022-10-07T10:14:43.455Z,17.8
2022-10-07T10:16:49.251Z,17.8
2022-10-07T10:18:55.047Z,17.7
2022-10-07T10:21:00.867Z,18.3
2022-10-07T10:25:12.453Z,19.3
2022-10-07T10:29:27.026Z,18.4
2022-10-07T10:31:32.895Z,18.1
2022-10-07T10:35:44.588Z,17.7
2022-10-07T10:39:56.069Z,17.6
2022-10-07T10:44:10.627Z,17.5
2022-10-07T10:46:16.521Z,17.5
2022-10-07T10:48:22.221Z,17.7
2022-10-07T10:50:28.020Z,17.8
2022-10-07T10:52:33.845Z,17.9
2022-10-07T10:58:54.230Z,18.4
2022-10-07T11:01:00.113Z,18.3
2022-10-07T11:03:05.886Z,18.4
2022-10-07T11:04:10.210Z,18.5
2022-10-07T11:08:25.301Z,18.1
2022-10-07T11:10:27.659Z,18.1
2022-10-07T11:18:53.863Z,18.7
2022-10-07T11:20:59.694Z,18.6
2022-10-07T11:23:05.525Z,18.4
2022-10-07T11:25:11.321Z,18.4
2022-10-07T11:27:20.099Z,18.6
2022-10-07T11:29:25.902Z,18.6
2022-10-07T11:31:31.756Z,18.5
2022-10-07T11:33:37.527Z,18.5
2022-10-07T11:35:43.498Z,18.7
2022-10-07T11:37:49.135Z,18.6
2022-10-07T11:39:54.934Z,18.7
2022-10-07T11:42:03.740Z,18.8
2022-10-07T11:44:09.530Z,18.9
2022-10-07T11:46:15.395Z,19
2022-10-07T11:48:21.154Z,19.2
2022-10-07T11:50:26.943Z,19
2022-10-07T11:52:37.095Z,19
2022-10-07T11:54:38.562Z,19
2022-10-07T11:58:53.167Z,19.2
2022-10-07T12:02:03.478Z,19
2022-10-07T12:04:09.165Z,18.9
2022-10-07T12:06:14.966Z,19.2
2022-10-07T12:08:20.778Z,19.2
2022-10-07T12:10:29.542Z,19.1
2022-10-07T12:18:52.766Z,19.1
2022-10-07T12:20:58.599Z,19.4
2022-10-07T12:23:04.412Z,19.4
2022-10-07T12:25:13.220Z,19.6
2022-10-07T12:27:19.012Z,19.6
2022-10-07T12:31:30.659Z,19.3
2022-10-07T12:35:42.246Z,19.3
2022-10-07T12:39:56.819Z,19.5
2022-10-07T12:42:02.638Z,19.6
2022-10-07T12:44:08.458Z,19.8
2022-10-07T12:46:14.310Z,19.8
2022-10-07T12:48:20.060Z,19.9
2022-10-07T12:50:25.861Z,20
2022-10-07T12:52:31.667Z,19.9
2022-10-07T12:54:40.412Z,19.8
2022-10-07T12:58:52.032Z,19.9
2022-10-07T12:59:56.419Z,19.6
2022-10-07T13:02:02.287Z,19.7
2022-10-07T13:04:08.011Z,19.7
2022-10-07T13:06:13.829Z,19.5
2022-10-07T13:08:22.598Z,19.9
2022-10-07T13:10:28.418Z,19.9
2022-10-07T13:12:34.243Z,19.9
2022-10-07T13:18:51.627Z,20.3
2022-10-07T13:23:06.186Z,20.1
2022-10-07T13:25:12.013Z,20
2022-10-07T13:27:17.826Z,19.9
2022-10-07T13:29:23.610Z,20.2
2022-10-07T13:31:29.479Z,20
2022-10-07T13:33:35.236Z,19.9
2022-10-07T13:35:41.020Z,19.8
2022-10-07T13:37:49.798Z,19.9
2022-10-07T13:39:55.610Z,20.1
2022-10-07T13:42:01.411Z,19.9
2022-10-07T13:44:07.217Z,19.7
2022-10-07T13:46:13.123Z,19.7
2022-10-07T13:48:18.810Z,19.5
2022-10-07T13:50:24.614Z,19.4
2022-10-07T13:52:33.377Z,19.4
2022-10-07T13:59:17.780Z,19.5
2022-10-07T14:01:23.656Z,19.5
2022-10-07T14:03:29.382Z,19.4
2022-10-07T14:05:38.157Z,19.2
2022-10-07T14:07:43.971Z,19.1
2022-10-07T14:09:49.777Z,19.1
2022-10-07T14:11:55.593Z,19.4
2022-10-07T14:14:05.687Z,19.4
2022-10-07T14:16:07.166Z,19.4
2022-10-07T14:18:12.992Z,19.2
2022-10-07T14:20:21.767Z,19.4
2022-10-07T14:22:27.578Z,19.3
2022-10-07T14:24:33.394Z,19.3
2022-10-07T14:26:39.195Z,19.3
2022-10-07T14:28:45.101Z,19.1
2022-10-07T14:30:55.592Z,19.1
2022-10-07T14:32:56.625Z,19
2022-10-07T14:35:05.435Z,18.9
2022-10-07T14:37:11.260Z,18.9
2022-10-07T14:39:17.056Z,18.7
2022-10-07T14:41:22.844Z,18.6
2022-10-07T14:43:28.653Z,18.5
2022-10-07T14:45:34.460Z,18.5
2022-10-07T14:54:00.697Z,18.6
2022-10-07T14:55:05.077Z,18.6
2022-10-07T14:57:10.888Z,18.6
2022-10-07T14:59:16.707Z,18.5
2022-10-07T15:01:22.521Z,18.4
2022-10-07T15:03:31.289Z,18.4
2022-10-07T15:05:37.120Z,18.3
2022-10-07T15:07:42.920Z,18.3
2022-10-07T15:09:48.734Z,18.3
2022-10-07T15:11:54.552Z,18.2
2022-10-07T15:14:00.348Z,18.2
2022-10-07T15:16:06.195Z,18.2
2022-10-07T15:18:14.976Z,18.2
2022-10-07T15:20:20.785Z,18.1
2022-10-07T15:22:26.608Z,18.1
2022-10-07T15:24:32.422Z,18.1
2022-10-07T15:26:38.241Z,18.1
2022-10-07T15:28:44.074Z,18.1
2022-10-07T15:30:49.960Z,18.1
2022-10-07T15:35:04.550Z,18.1
2022-10-07T15:39:16.193Z,18
2022-10-07T15:41:21.980Z,18
2022-10-07T15:45:33.613Z,18
2022-10-07T15:47:42.400Z,18
2022-10-07T15:51:54.055Z,17.9
2022-10-07T15:52:58.431Z,17.9
2022-10-07T15:55:07.614Z,17.9
2022-10-07T15:57:10.069Z,17.8
2022-10-07T15:59:15.876Z,17.8
2022-10-07T16:01:24.740Z,17.8
2022-10-07T16:03:30.483Z,17.8
2022-10-07T16:05:36.265Z,17.7
2022-10-07T16:07:42.115Z,17.7
2022-10-07T16:11:53.736Z,17.7
2022-10-07T16:13:59.537Z,17.6
2022-10-07T16:16:08.815Z,17.5
2022-10-07T16:18:14.130Z,17.5
2022-10-07T16:20:19.954Z,17.4
2022-10-07T16:22:25.783Z,17.3
2022-10-07T16:24:35.160Z,17.3
2022-10-07T16:26:37.528Z,17.2
2022-10-07T16:28:43.330Z,17.2
2022-10-07T16:30:52.135Z,17.1
2022-10-07T16:32:57.835Z,17.1
2022-10-07T16:35:03.680Z,17.1
2022-10-07T16:45:35.732Z,17
2022-10-07T16:50:51.828Z,16.8
2022-10-07T16:52:57.619Z,16.8
2022-10-07T16:55:03.424Z,16.8
2022-10-07T16:57:09.249Z,16.7
2022-10-07T17:01:23.907Z,16.6
2022-10-07T17:03:29.714Z,16.5
2022-10-07T17:05:35.515Z,16.5
2022-10-07T17:07:41.341Z,16.4
2022-10-07T17:09:47.179Z,16.3
2022-10-07T17:11:53.010Z,16.3
2022-10-07T17:14:01.766Z,16.2
2022-10-07T17:16:07.635Z,16.1
2022-10-07T17:18:13.411Z,16.1
2022-10-07T17:20:19.269Z,16.1
2022-10-07T17:22:25.055Z,16
2022-10-07T17:26:36.711Z,15.9
2022-10-07T17:35:02.997Z,15.8
2022-10-07T17:37:08.768Z,15.7
2022-10-07T17:41:20.428Z,15.7
2022-10-07T17:45:35.037Z,15.6
2022-10-07T17:47:40.893Z,15.6
2022-10-07T17:50:12.190Z,15.5
2022-10-07T17:52:18.025Z,15.5
2022-10-07T17:56:32.619Z,15.4
2022-10-07T17:58:38.437Z,15.4
2022-10-07T18:00:44.304Z,15.3
2022-10-07T18:04:56.017Z,15.3
2022-10-07T18:09:07.517Z,15.3
2022-10-07T18:11:16.295Z,15.2
2022-10-07T18:13:22.126Z,15.2
2022-10-07T18:15:27.947Z,15.1
2022-10-07T18:17:33.779Z,15.2
2022-10-07T18:19:39.624Z,15.1
2022-10-07T18:21:45.377Z,15.1
2022-10-07T18:23:51.328Z,15.1
2022-10-07T18:26:02.738Z,15.1
2022-10-07T18:30:11.610Z,15.1
2022-10-07T18:32:17.464Z,15.1
2022-10-07T18:34:23.269Z,15.1
2022-10-07T18:36:29.084Z,15
2022-10-07T18:38:34.879Z,15
2022-10-07T18:40:43.687Z,14.9
2022-10-07T18:44:55.316Z,15
2022-10-07T18:45:59.777Z,15
2022-10-07T18:48:05.501Z,14.9
2022-10-07T18:50:11.321Z,14.9
2022-10-07T18:52:17.141Z,14.9
2022-10-07T18:54:25.933Z,14.8
2022-10-07T18:58:37.556Z,14.7
2022-10-07T19:00:43.486Z,14.7
2022-10-07T19:02:49.155Z,14.6
2022-10-07T19:04:54.976Z,14.6
2022-10-07T19:07:00.775Z,14.6
2022-10-07T19:09:09.548Z,14.5
2022-10-07T19:11:15.373Z,14.5
2022-10-07T19:13:21.166Z,14.5
2022-10-07T19:15:26.965Z,14.5
2022-10-07T19:17:32.768Z,14.5
2022-10-07T19:21:44.367Z,14.4
2022-10-07T19:23:53.142Z,14.5
2022-10-07T19:25:58.955Z,14.4
2022-10-07T19:28:04.797Z,14.4
2022-10-07T19:30:10.700Z,14.4
2022-10-07T19:32:16.321Z,14.4
2022-10-07T19:40:42.540Z,14.4
2022-10-07T19:42:48.350Z,14.3
2022-10-07T19:43:52.742Z,14.4
2022-10-07T19:45:58.608Z,14.4
2022-10-07T19:48:04.346Z,14.4
2022-10-07T19:50:10.168Z,14.4
2022-10-07T19:56:30.551Z,14.4
2022-10-07T20:00:43.717Z,14.2
2022-10-07T20:04:55.320Z,14.2
2022-10-07T20:07:04.121Z,14.1
2022-10-07T20:09:09.939Z,14.1
2022-10-07T20:15:27.355Z,14
2022-10-07T20:17:33.170Z,14
2022-10-07T20:19:38.967Z,14
2022-10-07T20:23:53.532Z,13.9
2022-10-07T20:25:59.472Z,13.9
2022-10-07T20:28:05.151Z,14
2022-10-07T20:30:15.132Z,13.9
2022-10-07T20:32:16.816Z,13.9
2022-10-07T20:34:22.547Z,13.8
2022-10-07T20:36:31.321Z,13.8
2022-10-07T20:38:37.129Z,13.8
2022-10-07T20:40:42.915Z,13.8
2022-10-07T20:43:53.114Z,13.7
2022-10-07T20:45:58.993Z,13.7
2022-10-07T20:50:13.484Z,13.7
2022-10-07T20:52:19.295Z,13.6
2022-10-07T20:54:25.099Z,13.6
2022-10-07T20:56:30.905Z,13.6
2022-10-07T20:58:36.693Z,13.6
2022-10-07T21:00:42.483Z,13.6
2022-10-07T21:02:48.721Z,13.5
2022-10-07T21:04:57.068Z,13.6
2022-10-07T21:07:02.861Z,13.6
2022-10-07T21:09:08.684Z,13.6
2022-10-07T21:11:14.482Z,13.5
2022-10-07T21:13:20.286Z,13.6
2022-10-07T21:23:52.237Z,13.6
2022-10-07T21:25:58.046Z,13.6
2022-10-07T21:28:03.954Z,13.5
2022-10-07T21:30:09.616Z,13.6
2022-10-07T21:32:15.433Z,13.6
2022-10-07T21:34:24.221Z,13.5
2022-10-07T21:36:30.003Z,13.5
2022-10-07T21:38:35.813Z,13.5
2022-10-07T21:41:07.131Z,13.5
2022-10-07T21:43:12.938Z,13.5
2022-10-07T21:45:18.740Z,13.5
2022-10-07T21:47:27.490Z,13.4
2022-10-07T21:49:33.300Z,13.4
2022-10-07T21:51:39.092Z,13.4
2022-10-07T21:53:44.890Z,13.4
2022-10-07T21:55:50.693Z,13.4
2022-10-07T21:57:56.480Z,13.4
2022-10-07T22:00:02.524Z,13.3
2022-10-07T22:02:11.169Z,13.3
2022-10-07T22:04:16.852Z,13.3
2022-10-07T22:06:22.640Z,13.3
2022-10-07T22:08:28.440Z,13.3
2022-10-07T22:10:34.240Z,13.2
2022-10-07T22:12:40.030Z,13.2
2022-10-07T22:16:54.582Z,13.2
2022-10-07T22:19:00.382Z,13.1
2022-10-07T22:21:06.190Z,13.2
2022-10-07T22:23:11.971Z,13.2
2022-10-07T22:25:17.766Z,13.2
2022-10-07T22:27:23.584Z,13.1
2022-10-07T22:29:29.391Z,13.2
2022-10-07T22:31:38.169Z,13.1
2022-10-07T22:33:43.978Z,13.1
2022-10-07T22:35:49.744Z,13.1
2022-10-07T22:36:54.149Z,13.1
2022-10-07T22:41:05.728Z,13
2022-10-07T22:45:20.282Z,13
2022-10-07T22:47:26.079Z,12.9
2022-10-07T22:49:31.879Z,13
2022-10-07T22:51:37.683Z,13
2022-10-07T22:53:43.495Z,12.9
2022-10-07T22:55:49.261Z,12.9
2022-10-07T22:57:55.072Z,13
2022-10-07T23:00:03.907Z,13
2022-10-07T23:04:15.429Z,12.9
2022-10-07T23:06:21.234Z,13
2022-10-07T23:08:27.124Z,13
2022-10-07T23:10:32.821Z,13
2022-10-07T23:12:38.631Z,13.1
2022-10-07T23:14:47.403Z,13.1
2022-10-07T23:18:59.022Z,13.1
2022-10-07T23:21:04.806Z,13.1
2022-10-07T23:23:10.603Z,13.2
2022-10-07T23:25:16.397Z,13.2
2022-10-07T23:27:22.183Z,13.2
2022-10-07T23:29:30.959Z,13.2
2022-10-07T23:34:46.964Z,13.1
2022-10-07T23:38:58.562Z,13.2
2022-10-07T23:41:04.356Z,13.2
2022-10-07T23:43:13.128Z,13.2
2022-10-07T23:45:19.130Z,13.2
2022-10-07T23:47:24.731Z,13.2
2022-10-07T23:49:30.549Z,13.2
2022-10-07T23:51:36.323Z,13.2
2022-10-07T23:53:42.116Z,13.2
2022-10-07T23:55:47.954Z,13.3
2022-10-07T23:57:56.699Z,13.3
